Time;durP1;ratioP1;P1;durP2;ratioP2;P2;SDS_P1;SDS_P2;PMS_P1;PMS_P2;Temp;Humidity;BMP_temperature;BMP_pressure;BME280_temperature;BME280_humidity;BME280_pressure;Samples;Min_cycle;Max_cycle;Signal;HPM_P1;HPM_P2
2023/10/12 00:01:59;;;;;;;14.20;10.38;;;17.80;99.90;;;17.28;100.00;101182.41;4137425;28;20027;-77
2023/10/12 00:04:06;;;;;;;20.52;10.60;;;17.80;99.90;;;17.27;100.00;101186.06;4134589;28;20113;-77
2023/10/12 00:06:07;;;;;;;15.35;9.82;;;17.80;99.90;;;17.24;100.00;101182.94;4135575;28;20030;-77
2023/10/12 00:08:10;;;;;;;15.45;10.30;;;17.80;99.90;;;17.23;100.00;101191.97;4161433;28;20021;-77
2023/10/12 00:12:14;;;;;;;21.85;11.35;;;17.80;99.90;;;17.23;100.00;101194.66;4142371;28;20425;-76
2023/10/12 00:14:15;;;;;;;16.95;9.95;;;17.80;99.90;;;17.20;100.00;101184.34;4157168;28;20029;-76
2023/10/12 00:16:19;;;;;;;15.13;10.23;;;17.80;99.90;;;17.20;100.00;101193.19;4134531;28;20019;-77
2023/10/12 00:18:20;;;;;;;14.77;10.70;;;17.80;99.90;;;17.21;100.00;101194.81;4135346;28;20023;-77
2023/10/12 00:20:32;;;;;;;13.93;9.60;;;17.80;99.90;;;17.20;100.00;101201.19;4160159;28;20029;-76
2023/10/12 00:22:33;;;;;;;17.15;11.02;;;17.70;99.90;;;17.20;100.00;101198.53;4135983;28;20089;-77
2023/10/12 00:24:33;;;;;;;15.18;10.30;;;17.80;99.90;;;17.21;100.00;101197.50;4151679;28;20034;-77
2023/10/12 00:26:34;;;;;;;16.08;10.60;;;17.80;99.90;;;17.21;100.00;101194.81;4134580;28;20031;-77
2023/10/12 00:28:38;;;;;;;20.02;11.27;;;17.80;99.90;;;17.19;100.00;101196.84;4151901;28;20045;-77
2023/10/12 00:30:41;;;;;;;;;;;17.70;99.90;;;17.10;100.00;101193.47;4151503;28;20481;-77
2023/10/12 00:32:42;;;;;;;21.85;10.40;;;17.70;99.90;;;17.08;100.00;101195.50;4150808;28;19917;-77
2023/10/12 00:34:47;;;;;;;16.65;10.55;;;17.70;99.90;;;17.06;100.00;101194.84;4150788;28;20412;-77
2023/10/12 00:36:52;;;;;;;20.70;10.90;;;17.70;99.90;;;17.05;100.00;101185.19;4166925;28;20033;-77
2023/10/12 00:38:56;;;;;;;19.75;12.25;;;17.60;99.90;;;17.00;100.00;101179.63;4150782;28;20033;-77
2023/10/12 00:41:03;;;;;;;19.92;12.65;;;17.60;99.90;;;17.01;100.00;101188.44;4134602;28;20026;-77
2023/10/12 00:43:04;;;;;;;29.15;11.73;;;17.60;99.90;;;17.02;100.00;101179.44;4152632;28;20026;-77
2023/10/12 00:45:14;;;;;;;20.98;11.80;;;17.60;99.90;;;17.02;100.00;101179.44;4154719;28;20026;-77
2023/10/12 00:47:43;;;;;;;18.70;10.68;;;17.60;99.90;;;16.99;100.00;101166.50;4154631;28;20026;-76
2023/10/12 00:49:48;;;;;;;15.18;10.52;;;17.60;99.90;;;16.94;100.00;101164.38;4163600;28;20481;-77
2023/10/12 00:51:52;;;;;;;17.20;10.40;;;17.60;99.90;;;16.93;100.00;101168.06;4157339;28;20476;-77
2023/10/12 00:53:56;;;;;;;17.15;11.38;;;17.50;99.90;;;16.89;100.00;101156.13;4154820;28;20480;-77
2023/10/12 00:55:57;;;;;;;;;;;17.50;99.90;;;16.85;100.00;101154.00;4154841;28;20037;-77
2023/10/12 00:57:58;;;;;;;10.80;8.80;;;17.50;99.90;;;16.84;100.00;101155.88;4154628;28;19909;-77
2023/10/12 01:00:02;;;;;;;15.18;10.93;;;17.40;99.90;;;16.82;100.00;101165.03;4154580;28;20366;-77
2023/10/12 01:02:17;;;;;;;15.93;10.30;;;17.40;99.90;;;16.86;100.00;101167.16;4154534;28;20084;-77
2023/10/12 01:04:18;;;;;;;13.93;10.10;;;17.40;99.90;;;16.85;100.00;101162.00;4146677;28;20026;-77
2023/10/12 01:06:28;;;;;;;14.57;10.55;;;17.50;99.90;;;16.84;100.00;101157.69;4153094;28;20437;-77
2023/10/12 01:08:30;;;;;;;15.93;10.43;;;17.40;99.90;;;16.83;100.00;101156.03;4140574;28;20045;-77
2023/10/12 01:10:33;;;;;;;16.65;10.27;;;17.40;99.90;;;16.81;100.00;101163.41;4170371;28;20060;-77
2023/10/12 01:12:34;;;;;;;17.13;10.48;;;17.40;99.90;;;16.80;100.00;101167.91;4170601;28;20018;-77
2023/10/12 01:14:35;;;;;;;15.48;9.65;;;17.40;99.90;;;16.78;100.00;101163.78;4156284;28;20030;-77
2023/10/12 01:19:20;;;;;;;14.82;10.68;;;17.30;99.90;;;16.75;100.00;101162.31;4143784;28;20030;-76
2023/10/12 01:21:17;;;;;;;15.65;10.13;;;17.30;99.90;;;16.74;100.00;101159.81;4169885;28;20530;-77
2023/10/12 01:23:18;;;;;;;19.85;11.85;;;17.30;99.90;;;16.76;100.00;101161.28;4153135;28;20033;-77
2023/10/12 01:25:20;;;;;;;16.85;10.77;;;17.30;99.90;;;16.78;100.00;101159.28;4170411;28;20017;-77
2023/10/12 01:27:22;;;;;;;14.95;9.80;;;17.30;99.90;;;16.82;100.00;101173.03;4169227;28;20518;-77
2023/10/12 01:29:25;;;;;;;17.80;11.27;;;17.40;99.90;;;16.79;100.00;101160.06;4170348;28;20235;-77
2023/10/12 01:31:30;;;;;;;14.98;10.60;;;17.30;99.90;;;16.84;100.00;101165.69;4153054;28;20030;-77
2023/10/12 01:33:31;;;;;;;21.15;11.15;;;17.40;99.90;;;16.87;100.00;101173.31;4170111;28;20075;-77
2023/10/12 01:35:38;;;;;;;18.45;11.38;;;17.40;99.90;;;16.88;100.00;101157.13;4170150;28;20026;-77
2023/10/12 01:37:47;;;;;;;23.13;12.85;;;17.40;99.90;;;16.85;100.00;101159.31;4137446;28;20061;-77
2023/10/12 01:42:20;;;;;;;19.85;13.05;;;17.50;99.90;;;16.96;100.00;101166.88;4140785;28;20089;-77
2023/10/12 01:44:22;;;;;;;21.60;12.80;;;17.50;99.90;;;17.02;100.00;101163.44;4153882;28;20026;-77
2023/10/12 01:46:23;;;;;;;20.77;12.90;;;17.60;99.90;;;17.03;100.00;101154.41;4153813;28;20025;-77
2023/10/12 01:48:29;;;;;;;24.55;12.93;;;17.60;99.90;;;17.06;100.00;101157.53;4136345;28;20026;-77
2023/10/12 01:50:32;;;;;;;23.35;13.82;;;17.60;99.90;;;17.10;100.00;101166.00;4153620;28;20026;-77
2023/10/12 01:52:34;;;;;;;18.67;12.45;;;17.70;99.90;;;17.11;100.00;101167.66;4153719;28;20026;-77
2023/10/12 01:54:42;;;;;;;19.00;12.13;;;17.60;99.90;;;17.13;100.00;101161.13;4134866;28;20060;-77
2023/10/12 01:56:46;;;;;;;17.40;10.68;;;17.70;99.90;;;17.17;100.00;101158.91;4153688;28;20033;-77
2023/10/12 01:58:50;;;;;;;;;;;17.70;99.90;;;17.17;100.00;101158.06;4154099;28;20022;-77
2023/10/12 02:00:51;;;;;;;18.65;12.40;;;17.80;99.90;;;17.17;100.00;101147.41;4153683;28;19909;-77
2023/10/12 02:03:02;;;;;;;21.30;12.93;;;17.70;99.90;;;17.17;100.00;101142.91;4136258;28;20034;-77
2023/10/12 02:05:04;;;;;;;19.95;12.68;;;17.70;99.90;;;17.17;100.00;101146.38;4137343;28;20030;-77
2023/10/12 02:07:05;;;;;;;19.45;12.68;;;17.80;99.90;;;17.21;100.00;101151.34;4136089;28;20030;-77
2023/10/12 02:09:10;;;;;;;20.65;13.05;;;17.80;99.90;;;17.25;100.00;101156.13;4153109;28;20058;-77
2023/10/12 02:11:58;;;;;;;20.98;12.52;;;17.80;99.90;;;17.30;100.00;101144.88;4153089;28;20177;-77
2023/10/12 02:13:35;;;;;;;23.77;13.05;;;17.90;99.90;;;17.33;100.00;101145.31;4156636;28;20046;-77
2023/10/12 02:15:38;;;;;;;25.27;13.63;;;17.90;99.90;;;17.39;100.00;101146.38;4135922;28;20026;-77
2023/10/12 02:17:39;;;;;;;30.63;14.52;;;18.00;99.90;;;17.44;100.00;101155.47;4153241;28;20033;-77
2023/10/12 02:19:43;;;;;;;22.15;14.80;;;18.00;99.90;;;17.47;100.00;101147.09;4161950;28;20397;-77
2023/10/12 02:21:46;;;;;;;26.15;14.10;;;18.00;99.90;;;17.47;100.00;101139.09;4153286;28;20041;-77
2023/10/12 02:23:57;;;;;;;22.63;14.15;;;18.10;99.90;;;17.53;100.00;101149.00;4135937;28;20034;-77
2023/10/12 02:25:59;;;;;;;25.40;13.02;;;18.10;99.90;;;17.55;100.00;101141.69;4136772;28;20034;-77
2023/10/12 02:28:02;;;;;;;21.27;13.65;;;18.10;99.90;;;17.59;100.00;101136.78;4135818;28;20026;-77
2023/10/12 02:30:06;;;;;;;19.80;11.98;;;18.10;99.90;;;17.62;100.00;101137.19;4136260;28;20073;-77
2023/10/12 02:32:24;;;;;;;;;;;18.20;99.90;;;17.58;100.00;101130.63;4153595;28;20030;-77
2023/10/12 02:34:29;;;;;;;19.25;10.40;;;18.20;99.90;;;17.63;100.00;101140.69;4138124;28;19952;-77
2023/10/12 02:36:30;;;;;;;24.00;13.07;;;18.20;99.90;;;17.62;100.00;101136.41;4135776;28;20061;-77
2023/10/12 02:38:31;;;;;;;25.02;13.95;;;18.20;99.90;;;17.64;100.00;101137.84;4153012;28;20034;-77
2023/10/12 02:40:33;;;;;;;26.90;13.88;;;18.20;99.90;;;17.60;100.00;101139.25;4152645;28;20026;-77
2023/10/12 02:42:41;;;;;;;25.58;12.60;;;18.20;99.90;;;17.60;100.00;101133.91;4153046;28;20396;-77
2023/10/12 02:47:11;;;;;;;28.50;14.52;;;18.20;99.90;;;17.60;100.00;101122.41;4152808;28;20508;-77
2023/10/12 02:49:13;;;;;;;21.60;13.30;;;18.20;99.90;;;17.58;100.00;101127.13;4137650;28;20022;-77
2023/10/12 02:51:17;;;;;;;24.88;13.23;;;18.20;99.90;;;17.56;100.00;101124.63;4156957;28;20109;-77
2023/10/12 02:53:18;;;;;;;25.42;13.50;;;18.10;99.90;;;17.57;100.00;101134.28;4151508;28;20038;-77
2023/10/12 02:57:33;;;;;;;24.30;13.68;;;18.20;99.90;;;17.56;100.00;101126.50;4135795;28;20022;-77
2023/10/12 02:59:38;;;;;;;23.77;13.05;;;18.10;99.90;;;17.56;100.00;101131.84;4152670;28;20038;-77
2023/10/12 03:01:40;;;;;;;27.70;13.73;;;18.10;99.90;;;17.56;100.00;101151.31;4152728;28;20508;-77
2023/10/12 03:03:48;;;;;;;24.58;13.00;;;18.10;99.90;;;17.53;100.00;101149.00;4151487;28;20034;-77
2023/10/12 03:05:51;;;;;;;31.00;14.20;;;18.10;99.90;;;17.48;100.00;101159.41;4152374;28;20050;-77
2023/10/12 03:07:53;;;;;;;25.13;13.13;;;18.00;99.90;;;17.47;100.00;101168.44;4152740;28;20416;-77
2023/10/12 03:09:58;;;;;;;24.35;12.90;;;18.00;99.90;;;17.50;100.00;101180.59;4152431;28;20037;-77
2023/10/12 03:11:58;;;;;;;25.58;14.15;;;18.10;99.90;;;17.52;100.00;101184.72;4152300;28;20049;-77
2023/10/12 03:14:13;;;;;;;23.30;13.27;;;18.10;99.90;;;17.61;100.00;101177.44;4160407;28;20470;-77
2023/10/12 03:16:20;;;;;;;27.45;14.48;;;18.20;99.90;;;17.64;100.00;101177.88;4154563;28;20022;-78
2023/10/12 03:18:26;;;;;;;22.52;13.95;;;18.20;99.90;;;17.65;100.00;101168.03;4153105;28;20539;-77
2023/10/12 03:20:29;;;;;;;28.15;13.65;;;18.20;99.90;;;17.73;100.00;101169.72;4143154;28;20457;-77
2023/10/12 03:22:34;;;;;;;28.52;14.07;;;18.20;99.90;;;17.71;100.00;101169.09;4135139;28;20065;-77
2023/10/12 03:24:43;;;;;;;31.13;15.45;;;18.30;99.90;;;17.79;100.00;101179.63;4135357;28;20038;-77
2023/10/12 03:29:19;;;;;;;29.58;14.07;;;18.30;99.90;;;17.75;100.00;101173.03;4137641;28;20034;-77
2023/10/12 03:31:23;;;;;;;20.63;12.25;;;18.30;99.90;;;17.71;100.00;101169.94;4157440;28;20051;-77
2023/10/12 03:33:34;;;;;;;20.40;12.25;;;18.30;99.90;;;17.73;100.00;101172.41;4168726;28;20053;-77
2023/10/12 03:35:44;;;;;;;24.55;11.90;;;18.30;99.90;;;17.75;100.00;101173.84;4152691;28;20081;-77
2023/10/12 03:37:45;;;;;;;32.75;13.98;;;18.30;99.90;;;17.81;100.00;101182.94;4152447;28;20029;-77
2023/10/12 03:44:17;;;;;;;21.88;12.23;;;18.40;99.90;;;17.85;100.00;101173.53;4153870;28;20117;-77
2023/10/12 03:46:26;;;;;;;25.77;12.38;;;18.40;99.90;;;17.85;100.00;101174.38;4168671;28;20083;-77
2023/10/12 03:50:59;;;;;;;24.77;10.65;;;18.50;99.90;;;17.91;100.00;101175.44;4152645;28;20048;-77
2023/10/12 03:53:04;;;;;;;25.95;13.30;;;18.50;99.90;;;17.95;100.00;101190.06;4168550;28;20089;-77
2023/10/12 03:59:44;;;;;;;29.65;13.18;;;18.60;99.90;;;18.07;100.00;101191.19;4167480;28;20129;-77
2023/10/12 04:01:46;;;;;;;26.02;12.23;;;18.60;99.90;;;18.11;100.00;101184.41;4168150;28;20075;-77
2023/10/12 04:03:58;;;;;;;30.08;12.48;;;18.70;99.90;;;18.12;100.00;101178.06;4151135;28;20029;-77
2023/10/12 04:06:05;;;;;;;24.95;12.90;;;18.70;99.90;;;18.16;100.00;101179.31;4158617;28;20036;-77
2023/10/12 04:12:49;;;;;;;24.90;11.40;;;18.70;99.90;;;18.20;100.00;101181.41;4128981;28;20065;-77
2023/10/12 04:14:51;;;;;;;19.30;10.65;;;18.70;99.90;;;18.21;100.00;101175.06;4151969;28;20029;-77
2023/10/12 04:17:19;;;;;;;23.02;10.30;;;18.80;99.90;;;18.21;100.00;101177.72;4152045;28;20030;-77
2023/10/12 04:19:29;;;;;;;26.17;13.55;;;18.80;99.90;;;18.20;100.00;101172.56;4162083;28;20017;-77
2023/10/12 04:21:35;;;;;;;26.10;12.52;;;18.80;99.90;;;18.19;100.00;101168.22;4139072;28;20041;-77
2023/10/12 04:25:47;;;;;;;21.27;11.35;;;18.80;99.90;;;18.19;100.00;101154.88;4155033;28;20030;-77
2023/10/12 04:27:50;;;;;;;23.27;11.30;;;18.70;99.90;;;18.16;100.00;101144.59;4155084;28;20445;-77
2023/10/12 04:29:57;;;;;;;29.88;11.68;;;18.70;99.90;;;18.08;100.00;101148.25;4155378;28;20469;-77
2023/10/12 04:32:09;;;;;;;30.08;13.98;;;18.70;99.90;;;18.04;100.00;101133.63;4137983;28;20030;-77
2023/10/12 04:34:10;;;;;;;30.00;12.82;;;18.60;99.90;;;17.99;100.00;101138.75;4138950;28;20030;-77
2023/10/12 04:36:23;;;;;;;20.50;10.18;;;18.50;99.90;;;17.91;100.00;101136.22;4155689;28;20025;-77
2023/10/12 04:38:45;;;;;;;18.95;10.13;;;18.50;99.90;;;17.86;100.00;101145.84;4161497;28;20034;-77
2023/10/12 04:41:25;;;;;;;28.58;14.27;;;18.40;99.90;;;17.83;100.00;101138.22;4154418;28;20048;-77
2023/10/12 04:43:06;;;;;;;25.33;12.60;;;18.40;99.90;;;17.84;100.00;101147.84;4154629;28;20034;-77
2023/10/12 04:47:23;;;;;;;24.17;13.85;;;18.40;99.90;;;17.87;100.00;101155.47;4154577;28;20025;-77
2023/10/12 04:51:30;;;;;;;24.77;13.07;;;18.40;99.90;;;17.87;100.00;101144.78;4171188;28;20120;-77
2023/10/12 04:55:53;;;;;;;23.60;12.98;;;18.40;99.90;;;17.88;100.00;101157.97;4169778;28;20036;-77
2023/10/12 04:58:11;;;;;;;26.67;13.82;;;18.40;99.90;;;17.85;100.00;101158.34;4171077;28;20021;-77
2023/10/12 05:05:02;;;;;;;39.22;15.45;;;18.40;99.90;;;17.88;100.00;101160.63;4171059;28;20094;-77
2023/10/12 05:09:11;;;;;;;29.35;14.25;;;18.50;99.90;;;17.92;100.00;101171.75;4170779;28;20038;-77
2023/10/12 05:11:11;;;;;;;30.23;13.10;;;18.40;99.90;;;17.96;100.00;101170.31;4153044;28;20100;-77
2023/10/12 05:13:19;;;;;;;31.00;13.63;;;18.50;99.90;;;18.00;100.00;101164.44;4166716;28;20049;-77
2023/10/12 05:15:20;;;;;;;30.77;14.35;;;18.50;99.90;;;18.04;100.00;101163.00;4139624;28;20026;-77
2023/10/12 05:17:22;;;;;;;30.52;14.35;;;18.60;99.90;;;18.06;100.00;101169.00;4138123;28;20053;-77
2023/10/12 05:19:24;;;;;;;28.55;12.82;;;18.60;99.90;;;18.10;100.00;101174.75;4145473;28;20034;-77
2023/10/12 05:21:25;;;;;;;25.75;12.57;;;18.60;99.90;;;18.14;100.00;101168.00;4138128;28;20080;-77
2023/10/12 05:23:26;;;;;;;28.75;14.15;;;18.70;99.90;;;18.16;100.00;101161.44;4138015;28;20030;-77
2023/10/12 05:25:33;;;;;;;26.42;13.55;;;18.70;99.90;;;18.20;100.00;101176.06;4136645;28;20026;-78
2023/10/12 05:27:39;;;;;;;35.05;15.73;;;18.70;99.90;;;18.22;100.00;101174.00;4136511;28;20036;-77
2023/10/12 05:29:45;;;;;;;26.40;13.25;;;18.80;99.90;;;18.24;100.00;101177.34;4137796;28;20022;-77
2023/10/12 05:32:05;;;;;;;32.55;13.35;;;18.80;99.90;;;18.28;100.00;101174.28;4136877;28;20026;-77
2023/10/12 05:34:26;;;;;;;28.08;13.95;;;18.80;99.90;;;18.28;100.00;101167.06;4137714;28;20031;-77
2023/10/12 05:36:28;;;;;;;24.23;12.93;;;18.80;99.90;;;18.25;100.00;101167.44;4137862;28;20030;-77
2023/10/12 05:38:38;;;;;;;31.20;13.30;;;18.80;99.90;;;18.30;100.00;101172.22;4142503;28;20029;-77
2023/10/12 05:40:44;;;;;;;22.52;13.60;;;18.80;99.90;;;18.31;100.00;101173.88;4146041;28;20057;-77
2023/10/12 05:42:50;;;;;;;28.23;12.23;;;18.80;99.90;;;18.31;100.00;101173.88;4151969;28;20030;-77
2023/10/12 05:45:05;;;;;;;23.83;12.00;;;18.90;99.90;;;18.31;100.00;101174.69;4144586;28;20026;-77
2023/10/12 05:47:05;;;;;;;24.25;13.00;;;18.90;99.90;;;18.31;100.00;101163.19;4137568;28;20026;-77
2023/10/12 05:49:14;;;;;;;22.55;11.38;;;18.90;99.90;;;18.34;100.00;101181.50;4140758;28;20037;-78
2023/10/12 05:51:19;;;;;;;25.10;13.80;;;18.90;99.90;;;18.34;100.00;101173.50;4136395;28;20113;-78
2023/10/12 05:53:20;;;;;;;22.10;11.07;;;18.90;99.90;;;18.34;100.00;101178.84;4143406;28;20022;-78
2023/10/12 05:55:21;;;;;;;27.38;11.48;;;18.90;99.90;;;18.34;100.00;101174.28;4147026;28;20034;-77
2023/10/12 05:57:25;;;;;;;27.80;12.98;;;18.90;99.90;;;18.36;100.00;101180.28;4146013;28;20026;-77
2023/10/12 05:59:26;;;;;;;23.10;12.77;;;18.90;99.90;;;18.32;100.00;101173.69;4150940;28;20477;-77
2023/10/12 06:01:33;;;;;;;31.05;13.05;;;18.90;99.90;;;18.35;100.00;101186.63;4140112;28;20042;-77
2023/10/12 06:03:36;;;;;;;25.35;14.10;;;18.90;99.90;;;18.36;100.00;101182.13;4137352;28;20038;-78
2023/10/12 06:05:37;;;;;;;26.42;12.35;;;18.90;99.90;;;18.38;100.00;101186.25;4135974;28;20023;-77
2023/10/12 06:07:38;;;;;;;29.88;14.23;;;18.90;99.90;;;18.38;100.00;101190.75;4137335;28;20045;-77
2023/10/12 06:09:40;;;;;;;31.88;13.63;;;18.90;99.90;;;18.37;100.00;101181.91;4140882;28;20075;-77
2023/10/12 06:11:46;;;;;;;26.00;11.95;;;18.90;99.90;;;18.39;100.00;101182.56;4135931;28;20472;-78
2023/10/12 06:13:51;;;;;;;29.17;13.98;;;19.00;99.90;;;18.43;100.00;101191.03;4137232;28;20469;-78
2023/10/12 06:15:53;;;;;;;25.63;11.88;;;19.00;99.90;;;18.45;100.00;101187.13;4137142;28;20029;-77
2023/10/12 06:17:55;;;;;;;21.77;11.63;;;19.00;99.90;;;18.43;100.00;101191.81;4136952;28;20029;-77
2023/10/12 06:20:11;;;;;;;28.27;11.45;;;19.00;99.90;;;18.44;100.00;101187.31;4135741;28;20034;-77
2023/10/12 06:22:23;;;;;;;22.50;11.30;;;19.00;99.90;;;18.45;100.00;101203.16;4136032;28;20030;-77
2023/10/12 06:24:33;;;;;;;25.85;11.43;;;19.00;99.90;;;18.45;100.00;101191.63;4136897;28;20038;-77
2023/10/12 06:26:34;;;;;;;20.67;10.60;;;19.00;99.90;;;18.47;100.00;101202.94;4135996;28;20033;-77
2023/10/12 06:28:38;;;;;;;18.88;10.05;;;19.00;99.90;;;18.51;100.00;101206.91;4135720;28;20035;-77
2023/10/12 06:30:46;;;;;;;21.35;9.50;;;19.00;99.90;;;18.56;100.00;101210.66;4136918;28;20030;-77
2023/10/12 06:32:48;;;;;;;19.20;9.32;;;19.10;99.90;;;18.59;100.00;101204.06;4120341;28;20468;-77
2023/10/12 06:35:03;;;;;;;18.95;10.18;;;19.10;99.90;;;18.60;100.00;101216.44;4135552;28;20057;-77
2023/10/12 06:37:12;;;;;;;17.42;9.30;;;19.10;99.90;;;18.62;100.00;101212.53;4136651;28;20030;-77
2023/10/12 06:45:46;;;;;;;15.75;9.52;;;19.20;99.90;;;18.69;100.00;101202.72;4136628;28;20030;-78
2023/10/12 06:47:48;;;;;;;14.77;8.93;;;19.20;99.90;;;18.71;100.00;101214.03;4135792;28;20030;-78
2023/10/12 06:49:51;;;;;;;15.02;7.55;;;19.20;99.90;;;18.74;100.00;101218.97;4136760;28;20037;-79
2023/10/12 06:52:01;;;;;;;15.90;8.38;;;19.30;99.90;;;18.76;100.00;101205.41;4136488;28;20501;-78
2023/10/12 06:54:17;;;;;;;13.15;7.75;;;19.30;99.90;;;18.77;100.00;101210.56;4135263;28;20034;-78
2023/10/12 06:58:20;;;;;;;15.77;7.25;;;19.40;99.90;;;18.80;100.00;101212.00;4136653;28;20030;-77
2023/10/12 07:00:34;;;;;;;15.70;7.55;;;19.30;99.90;;;18.81;100.00;101210.16;4136616;28;20030;-78
2023/10/12 07:02:35;;;;;;;14.25;6.90;;;19.40;99.90;;;18.85;100.00;101219.41;4135468;28;20052;-77
2023/10/12 07:04:38;;;;;;;13.73;7.35;;;19.40;99.90;;;18.87;100.00;101217.38;4136360;28;20113;-77
2023/10/12 07:06:56;;;;;;;12.60;6.88;;;19.40;99.90;;;18.89;100.00;101224.19;4136564;28;20080;-78
2023/10/12 07:08:57;;;;;;;12.15;6.90;;;19.40;99.90;;;18.91;100.00;101240.00;4136138;28;20038;-77
2023/10/12 07:10:58;;;;;;;16.23;6.82;;;19.40;99.90;;;18.95;100.00;101230.59;4135099;28;20097;-78
2023/10/12 07:13:00;;;;;;;13.55;6.75;;;19.50;99.90;;;18.95;100.00;101247.44;4123894;28;20066;-78
2023/10/12 07:15:07;;;;;;;12.23;6.25;;;19.50;99.90;;;19.01;100.00;101240.47;4136374;28;20066;-77
2023/10/12 07:17:08;;;;;;;13.27;6.55;;;19.50;99.90;;;19.06;100.00;101238.84;4136236;28;20371;-78
2023/10/12 07:19:09;;;;;;;15.98;6.82;;;19.60;99.90;;;19.11;100.00;101243.63;4135011;28;20061;-78
2023/10/12 07:21:23;;;;;;;15.07;7.90;;;19.60;99.90;;;19.14;100.00;101246.72;4136186;28;20026;-78
2023/10/12 07:23:34;;;;;;;18.58;7.28;;;19.60;99.90;;;19.17;100.00;101246.34;4135069;28;20030;-78
2023/10/12 07:25:35;;;;;;;15.75;6.95;;;19.70;99.90;;;19.22;100.00;101251.91;4135503;28;20449;-77
2023/10/12 07:27:49;;;;;;;15.77;6.28;;;19.70;99.90;;;19.27;100.00;101251.28;4135099;28;20691;-77
2023/10/12 07:32:38;;;;;;;11.52;6.00;;;19.80;99.90;;;19.32;100.00;101248.84;4134966;28;20039;-78
2023/10/12 07:34:37;;;;;;;12.10;5.63;;;19.90;99.90;;;19.28;100.00;101252.94;4135430;28;20476;-77
2023/10/12 07:38:43;;;;;;;;;;;19.90;99.90;;;19.33;100.00;101254.00;4136645;28;20030;-78
2023/10/12 07:41:00;;;;;;;12.43;5.55;;;19.90;99.90;;;19.40;100.00;101255.91;4134622;28;19909;-78
2023/10/12 07:43:07;;;;;;;13.25;5.63;;;20.00;99.90;;;19.41;100.00;101246.84;4135972;28;20503;-78
2023/10/12 07:45:09;;;;;;;17.40;6.80;;;20.00;99.90;;;19.48;100.00;101253.03;4134862;28;20026;-78
2023/10/12 07:47:18;;;;;;;15.23;4.95;;;20.00;99.90;;;19.53;100.00;101253.28;4135911;28;20034;-78
2023/10/12 07:49:28;;;;;;;7.85;5.13;;;20.10;99.90;;;19.65;100.00;101248.97;4134937;28;20023;-78
2023/10/12 07:51:53;;;;;;;15.45;5.88;;;20.10;99.90;;;19.67;100.00;101237.03;4135817;28;20031;-78
2023/10/12 07:53:57;;;;;;;13.57;5.47;;;20.20;99.90;;;19.75;100.00;101230.66;4129972;28;20505;-78
2023/10/12 07:56:01;;;;;;;11.25;5.65;;;20.30;99.90;;;19.83;100.00;101235.81;4138091;28;20023;-78
2023/10/12 07:58:02;;;;;;;;;;;20.30;99.90;;;19.81;100.00;101243.22;4139823;28;20057;-78
2023/10/12 08:02:15;;;;;;;10.52;4.72;;;20.40;99.90;;;19.84;100.00;101235.59;4139190;28;20450;-78
2023/10/12 08:04:29;;;;;;;12.30;5.22;;;20.40;99.90;;;19.83;100.00;101241.19;4139152;28;20085;-78
2023/10/12 08:08:34;;;;;;;14.48;5.50;;;20.40;99.90;;;19.79;100.00;101246.13;4139434;28;20035;-78
2023/10/12 08:12:45;;;;;;;13.10;4.63;;;20.40;99.90;;;19.85;100.00;101253.34;4150087;28;20052;-78
2023/10/12 08:14:46;;;;;;;9.95;5.18;;;20.40;99.90;;;19.86;100.00;101246.13;4169288;28;20036;-78
2023/10/12 08:17:24;;;;;;;8.52;4.95;;;20.40;99.90;;;19.92;100.00;101255.19;4145603;28;20030;-78
2023/10/12 08:19:27;;;;;;;11.05;4.40;;;20.40;99.90;;;19.86;100.00;101262.19;4163337;28;20030;-78
2023/10/12 08:23:29;;;;;;;9.82;4.80;;;20.50;99.90;;;19.93;100.00;101262.19;4143103;28;20046;-78
2023/10/12 08:25:38;;;;;;;12.55;5.03;;;20.50;99.90;;;19.87;100.00;101261.97;4161024;28;20041;-78
2023/10/12 08:28:05;;;;;;;16.80;5.97;;;20.40;99.90;;;19.79;100.00;101272.06;4155199;28;20085;-78
2023/10/12 08:30:13;;;;;;;13.25;6.47;;;20.40;99.90;;;19.70;100.00;101267.91;4155184;28;20080;-77
2023/10/12 08:32:16;;;;;;;10.98;5.40;;;20.30;99.90;;;19.69;100.00;101277.78;4155039;28;20549;-78
2023/10/12 08:39:09;;;;;;;9.02;4.95;;;20.30;99.90;;;19.66;100.00;101277.38;4154614;28;20025;-78
2023/10/12 08:41:42;;;;;;;10.77;5.10;;;20.20;99.90;;;19.66;100.00;101277.38;4154989;28;20030;-78
2023/10/12 08:43:52;;;;;;;10.15;4.30;;;20.20;99.90;;;19.79;100.00;101282.75;4148290;28;20121;-78
2023/10/12 08:45:53;;;;;;;10.77;4.57;;;20.30;99.90;;;19.92;100.00;101290.00;4143081;28;20081;-78
2023/10/12 08:48:02;;;;;;;10.73;4.68;;;20.40;99.90;;;19.98;100.00;101292.66;4153609;28;20367;-78
2023/10/12 08:52:28;;;;;;;14.65;5.32;;;20.60;99.90;;;20.05;100.00;101281.97;4170845;28;20037;-78
2023/10/12 08:54:32;;;;;;;8.77;4.28;;;20.60;99.90;;;20.11;100.00;101284.66;4161869;28;20112;-77
2023/10/12 08:56:38;;;;;;;11.68;4.82;;;20.60;99.90;;;20.28;100.00;101290.50;4137686;28;20512;-78
2023/10/12 08:58:50;;;;;;;12.52;4.57;;;20.80;99.90;;;20.40;100.00;101288.81;4153366;28;20445;-78
2023/10/12 09:01:10;;;;;;;9.80;3.53;;;20.90;99.90;;;20.56;100.00;101288.41;4154664;28;20591;-78
2023/10/12 09:05:28;;;;;;;9.32;3.80;;;21.20;99.90;;;20.83;100.00;101281.97;4137754;28;20027;-78
2023/10/12 09:07:45;;;;;;;8.02;3.92;;;21.40;99.90;;;20.94;100.00;101275.09;4160848;28;20025;-79
2023/10/12 09:09:55;;;;;;;9.93;3.25;;;21.40;99.90;;;20.88;100.00;101279.47;4140252;28;20026;-79
2023/10/12 09:11:59;;;;;;;12.80;3.60;;;21.40;99.90;;;20.88;100.00;101273.28;4154205;28;20042;-79
2023/10/12 09:14:11;;;;;;;8.65;2.70;;;21.40;99.90;;;20.88;100.00;101278.63;4162409;28;20045;-77
2023/10/12 09:16:15;;;;;;;10.68;4.13;;;21.50;99.90;;;20.75;100.00;101265.28;4140493;28;20038;-79
2023/10/12 09:18:17;;;;;;;8.93;3.63;;;21.40;99.90;;;20.79;100.00;101275.34;4136759;28;20023;-78
2023/10/12 09:20:28;;;;;;;8.05;3.72;;;21.30;99.90;;;20.91;100.00;101271.00;4167118;28;20519;-76
2023/10/12 09:22:29;;;;;;;10.48;3.97;;;21.40;99.90;;;20.95;100.00;101274.91;4157819;28;20432;-77
2023/10/12 09:24:35;;;;;;;11.55;4.00;;;21.40;99.90;;;20.94;100.00;101283.97;4148011;28;20060;-77
2023/10/12 09:26:49;;;;;;;8.45;3.22;;;21.50;99.90;;;20.98;100.00;101287.91;4152849;28;20026;-76
2023/10/12 09:30:50;;;;;;;10.30;3.95;;;21.50;99.90;;;21.16;100.00;101278.38;4153535;28;20022;-77
2023/10/12 09:33:05;;;;;;;12.95;4.05;;;21.60;99.90;;;21.11;100.00;101284.41;4136413;28;20045;-77
2023/10/12 09:35:14;;;;;;;15.02;5.00;;;21.70;99.90;;;21.08;100.00;101287.50;4152665;28;20029;-76
2023/10/12 09:37:18;;;;;;;9.95;3.60;;;21.60;99.90;;;21.24;100.00;101291.56;4153000;28;20061;-77
2023/10/12 09:39:27;;;;;;;12.68;4.25;;;21.70;99.90;;;21.31;100.00;101282.44;4167425;28;20036;-77
2023/10/12 09:41:37;;;;;;;13.63;3.85;;;21.80;99.90;;;21.18;100.00;101284.34;4156726;28;20052;-77
2023/10/12 09:43:39;;;;;;;11.40;4.40;;;21.80;99.90;;;21.12;100.00;101285.19;4151798;28;20018;-78
2023/10/12 09:45:55;;;;;;;9.77;4.07;;;21.70;99.90;;;21.27;100.00;101288.44;4135712;28;20060;-78
2023/10/12 09:47:59;;;;;;;14.18;4.10;;;21.70;99.90;;;21.43;100.00;101293.34;4138203;28;20456;-76
2023/10/12 09:50:12;;;;;;;10.80;3.65;;;21.80;99.90;;;21.46;100.00;101282.19;4136299;28;20038;-78
2023/10/12 09:52:16;;;;;;;14.07;3.80;;;21.90;99.90;;;21.39;100.00;101284.06;4137671;28;20041;-78